FBU399Y LFSB-LFPG
Flight info
| Callsign | FBU399Y |
|---|---|
| Flight time | N/A |
| Altitude | 32000 |
| Route | LFSB/25 TORPA V40 LUL Y112 RLP |
| Aircraft | A359/H-SDE2E3GHIJ3J4J5LM1ORWXY/LB1D1 |
Departure
| Time | 2026-04-28 19:04 |
|---|---|
| Airport | EuroAirport Basel–Mulhouse–Freiburg (LFSB) |
Arrival
| Time | N/A |
|---|---|
| Airport | Charles de Gaulle International Airport (LFPG) |
| Time | Latitude | Longitude | Altitude | Speed | Heading |
|---|---|---|---|---|---|
| 2026-04-28 19:00 | 47.59155 | 7.53349 | 893 ft | 2 kts | 75° |
| 2026-04-28 19:00 | 47.59162 | 7.53391 | 893 ft | 7 kts | 77° |
| 2026-04-28 19:01 | 47.59176 | 7.53485 | 893 ft | 12 kts | 77° |
| 2026-04-28 19:01 | 47.59198 | 7.53629 | 893 ft | 17 kts | 77° |
| 2026-04-28 19:01 | 47.59229 | 7.53826 | 893 ft | 21 kts | 75° |
| 2026-04-28 19:01 | 47.59241 | 7.53897 | 893 ft | 0 kts | 78° |
| 2026-04-28 19:03 | 47.59241 | 7.53901 | 893 ft | 3 kts | 82° |
| 2026-04-28 19:03 | 47.59216 | 7.54028 | 894 ft | 19 kts | 123° |
| 2026-04-28 19:03 | 47.59168 | 7.54038 | 895 ft | 4 kts | 228° |
| 2026-04-28 19:03 | 47.59148 | 7.53948 | 895 ft | 0 kts | 257° |
| 2026-04-28 19:04 | 47.59107 | 7.53688 | 897 ft | 83 kts | 257° |
| 2026-04-28 19:04 | 47.58883 | 7.52254 | 931 ft | 194 kts | 258° |
| 2026-04-28 19:04 | 47.58555 | 7.50160 | 2013 ft | 219 kts | 257° |
| 2026-04-28 19:05 | 47.58216 | 7.47902 | 2749 ft | 235 kts | 257° |
| 2026-04-28 19:05 | 47.57855 | 7.45403 | 3205 ft | 258 kts | 258° |
| 2026-04-28 19:05 | 47.57501 | 7.42703 | 3783 ft | 275 kts | 258° |
| 2026-04-28 19:05 | 47.57102 | 7.39964 | 4840 ft | 269 kts | 256° |
| 2026-04-28 19:06 | 47.56680 | 7.37267 | 5718 ft | 272 kts | 257° |
| 2026-04-28 19:06 | 47.56400 | 7.35437 | 6228 ft | 277 kts | 258° |
| 2026-04-28 19:06 | 47.55835 | 7.31744 | 6870 ft | 278 kts | 258° |
| 2026-04-28 19:06 | 47.55404 | 7.28939 | 6981 ft | 280 kts | 258° |
| 2026-04-28 19:07 | 47.54971 | 7.26122 | 6992 ft | 281 kts | 258° |
| 2026-04-28 19:07 | 47.54535 | 7.23294 | 6992 ft | 282 kts | 257° |
| 2026-04-28 19:07 | 47.54099 | 7.20473 | 6990 ft | 282 kts | 258° |
| 2026-04-28 19:07 | 47.53662 | 7.17638 | 6987 ft | 282 kts | 258° |
| 2026-04-28 19:08 | 47.53227 | 7.14822 | 6990 ft | 281 kts | 257° |
| 2026-04-28 19:08 | 47.52796 | 7.12037 | 6989 ft | 282 kts | 257° |
| 2026-04-28 19:08 | 47.52359 | 7.09211 | 6993 ft | 282 kts | 257° |
| 2026-04-28 19:08 | 47.51920 | 7.06379 | 6993 ft | 283 kts | 258° |
| 2026-04-28 19:09 | 47.51480 | 7.03545 | 6990 ft | 283 kts | 258° |
| 2026-04-28 19:09 | 47.51041 | 7.00716 | 6991 ft | 283 kts | 258° |
| 2026-04-28 19:09 | 47.50601 | 6.97882 | 6992 ft | 282 kts | 258° |
| 2026-04-28 19:09 | 47.50164 | 6.95063 | 6992 ft | 281 kts | 257° |
| 2026-04-28 19:10 | 47.49724 | 6.92236 | 6995 ft | 282 kts | 258° |
| 2026-04-28 19:10 | 47.49284 | 6.89404 | 6993 ft | 283 kts | 257° |
| 2026-04-28 19:10 | 47.48848 | 6.86604 | 6994 ft | 284 kts | 257° |
| 2026-04-28 19:10 | 47.48504 | 6.83737 | 7000 ft | 283 kts | 265° |
| 2026-04-28 19:11 | 47.48347 | 6.80838 | 7172 ft | 284 kts | 267° |
| 2026-04-28 19:11 | 47.48254 | 6.77909 | 7896 ft | 285 kts | 268° |
| 2026-04-28 19:11 | 47.48191 | 6.74988 | 8867 ft | 284 kts | 269° |
| 2026-04-28 19:11 | 47.48137 | 6.72070 | 9825 ft | 284 kts | 268° |
| 2026-04-28 19:12 | 47.48115 | 6.69113 | 10515 ft | 294 kts | 272° |
| 2026-04-28 19:12 | 47.48504 | 6.66059 | 10902 ft | 314 kts | 289° |
| 2026-04-28 19:12 | 47.49555 | 6.63124 | 11267 ft | 333 kts | 301° |
| 2026-04-28 19:12 | 47.50912 | 6.60330 | 11722 ft | 344 kts | 306° |
| 2026-04-28 19:13 | 47.52445 | 6.57562 | 12341 ft | 351 kts | 309° |
| 2026-04-28 19:13 | 47.54062 | 6.54816 | 12994 ft | 356 kts | 310° |
| 2026-04-28 19:13 | 47.55714 | 6.52060 | 13641 ft | 360 kts | 310° |
| 2026-04-28 19:13 | 47.57382 | 6.49265 | 14280 ft | 363 kts | 310° |
| 2026-04-28 19:14 | 47.59045 | 6.46445 | 14942 ft | 364 kts | 309° |
| 2026-04-28 19:14 | 47.60703 | 6.43603 | 15632 ft | 365 kts | 309° |
| 2026-04-28 19:14 | 47.62360 | 6.40733 | 16305 ft | 367 kts | 309° |
| 2026-04-28 19:14 | 47.64018 | 6.37847 | 17022 ft | 367 kts | 309° |
| 2026-04-28 19:15 | 47.65671 | 6.34958 | 17710 ft | 369 kts | 308° |
| 2026-04-28 19:15 | 47.67264 | 6.32036 | 18376 ft | 370 kts | 304° |
| 2026-04-28 19:15 | 47.68622 | 6.28793 | 18877 ft | 373 kts | 295° |
| 2026-04-28 19:15 | 47.69339 | 6.26456 | 19142 ft | 376 kts | 290° |
| 2026-04-28 19:16 | 47.70559 | 6.21571 | 19830 ft | 379 kts | 286° |
| 2026-04-28 19:16 | 47.71372 | 6.17839 | 20413 ft | 380 kts | 284° |
| 2026-04-28 19:16 | 47.72147 | 6.14083 | 20953 ft | 382 kts | 284° |
| 2026-04-28 19:16 | 47.72917 | 6.10299 | 21490 ft | 384 kts | 283° |
| 2026-04-28 19:17 | 47.73694 | 6.06496 | 22026 ft | 386 kts | 283° |
| 2026-04-28 19:17 | 47.74471 | 6.02727 | 22550 ft | 388 kts | 283° |
| 2026-04-28 19:17 | 47.75269 | 5.98895 | 23037 ft | 390 kts | 283° |
| 2026-04-28 19:17 | 47.76077 | 5.95034 | 23565 ft | 392 kts | 283° |
| 2026-04-28 19:18 | 47.76890 | 5.91156 | 23995 ft | 394 kts | 283° |
| 2026-04-28 19:18 | 47.77705 | 5.87273 | 24558 ft | 392 kts | 283° |
| 2026-04-28 19:18 | 47.78515 | 5.83421 | 25136 ft | 390 kts | 282° |
| 2026-04-28 19:18 | 47.79320 | 5.79572 | 25586 ft | 392 kts | 282° |
| 2026-04-28 19:19 | 47.80130 | 5.75684 | 26036 ft | 395 kts | 282° |
| 2026-04-28 19:19 | 47.80943 | 5.71770 | 26492 ft | 397 kts | 282° |
| 2026-04-28 19:19 | 47.81760 | 5.67831 | 27023 ft | 399 kts | 282° |
| 2026-04-28 19:19 | 47.82568 | 5.63929 | 27528 ft | 401 kts | 282° |
| 2026-04-28 19:20 | 47.83390 | 5.59955 | 28118 ft | 403 kts | 282° |
| 2026-04-28 19:20 | 47.84220 | 5.55965 | 28700 ft | 405 kts | 283° |
| 2026-04-28 19:20 | 47.85056 | 5.51952 | 29286 ft | 407 kts | 282° |
| 2026-04-28 19:20 | 47.85892 | 5.47911 | 29872 ft | 410 kts | 282° |
| 2026-04-28 19:21 | 47.86731 | 5.43835 | 30411 ft | 413 kts | 282° |
| 2026-04-28 19:21 | 47.87574 | 5.39729 | 30902 ft | 416 kts | 282° |
| 2026-04-28 19:21 | 47.88420 | 5.35591 | 31388 ft | 419 kts | 282° |
| 2026-04-28 19:21 | 47.89258 | 5.31482 | 31846 ft | 422 kts | 282° |
| 2026-04-28 19:22 | 47.90109 | 5.27305 | 32011 ft | 424 kts | 282° |
| 2026-04-28 19:22 | 47.90411 | 5.25880 | 32025 ft | 428 kts | 283° |
| 2026-04-28 19:22 | 47.93368 | 5.14786 | 32022 ft | 434 kts | 287° |
| 2026-04-28 19:23 | 47.95660 | 5.06461 | 32033 ft | 434 kts | 287° |
| 2026-04-28 19:23 | 47.97942 | 4.98115 | 32020 ft | 435 kts | 287° |
| 2026-04-28 19:24 | 48.00201 | 4.89817 | 32016 ft | 435 kts | 287° |
| 2026-04-28 19:24 | 48.02474 | 4.81434 | 32017 ft | 435 kts | 287° |
| 2026-04-28 19:25 | 48.04736 | 4.73061 | 32021 ft | 435 kts | 287° |
| 2026-04-28 19:25 | 48.06994 | 4.64672 | 32024 ft | 435 kts | 286° |
| 2026-04-28 19:26 | 48.09235 | 4.56317 | 32018 ft | 436 kts | 286° |
| 2026-04-28 19:26 | 48.11486 | 4.47895 | 32018 ft | 436 kts | 286° |
| 2026-04-28 19:27 | 48.14280 | 4.39785 | 32038 ft | 451 kts | 303° |
| 2026-04-28 19:27 | 48.18924 | 4.33308 | 32020 ft | 458 kts | 312° |
| 2026-04-28 19:28 | 48.23718 | 4.27098 | 32009 ft | 458 kts | 312° |
| 2026-04-28 19:28 | 48.28156 | 4.20377 | 32019 ft | 451 kts | 303° |
| 2026-04-28 19:29 | 48.31468 | 4.14332 | 32021 ft | 451 kts | 303° |
| 2026-04-28 19:29 | 48.35444 | 4.07045 | 32021 ft | 451 kts | 303° |
| 2026-04-28 19:30 | 48.40073 | 3.98567 | 32023 ft | 452 kts | 302° |
| 2026-04-28 19:30 | 48.44064 | 3.91236 | 32022 ft | 453 kts | 302° |
| 2026-04-28 19:31 | 48.47385 | 3.85127 | 32022 ft | 453 kts | 302° |
| 2026-04-28 19:31 | 48.51374 | 3.77772 | 32025 ft | 453 kts | 302° |
| 2026-04-28 19:32 | 48.55168 | 3.70230 | 32030 ft | 448 kts | 297° |
| 2026-04-28 19:32 | 48.59095 | 3.61060 | 32030 ft | 448 kts | 296° |
| 2026-04-28 19:33 | 48.61925 | 3.54428 | 32035 ft | 448 kts | 296° |
| 2026-04-28 19:33 | 48.65264 | 3.46550 | 32055 ft | 448 kts | 296° |
| 2026-04-28 19:34 | 48.68634 | 3.38579 | 32030 ft | 451 kts | 296° |
| 2026-04-28 19:34 | 48.72012 | 3.30567 | 32034 ft | 451 kts | 296° |
| 2026-04-28 19:35 | 48.75386 | 3.22553 | 32053 ft | 451 kts | 296° |
| 2026-04-28 19:35 | 48.78741 | 3.14575 | 32048 ft | 452 kts | 296° |
| 2026-04-28 19:36 | 48.82110 | 3.06547 | 32035 ft | 451 kts | 296° |
| 2026-04-28 19:36 | 48.85495 | 2.98489 | 32044 ft | 454 kts | 296° |
| 2026-04-28 19:37 | 48.88319 | 2.91756 | 32051 ft | 455 kts | 296° |
| 2026-04-28 19:37 | 48.92270 | 2.82318 | 32053 ft | 455 kts | 296° |
| 2026-04-28 19:38 | 48.95662 | 2.74202 | 32048 ft | 455 kts | 296° |
| 2026-04-28 19:38 | 48.99060 | 2.66056 | 32046 ft | 455 kts | 296° |
| 2026-04-28 19:39 | 49.02428 | 2.57946 | 32046 ft | 458 kts | 296° |
| 2026-04-28 19:39 | 49.05823 | 2.49716 | 32056 ft | 460 kts | 296° |
| 2026-04-28 19:40 | 49.09196 | 2.41395 | 32048 ft | 462 kts | 296° |
| 2026-04-28 19:40 | 49.12572 | 2.33028 | 32052 ft | 463 kts | 296° |
| 2026-04-28 19:41 | 49.15940 | 2.24663 | 32051 ft | 463 kts | 296° |
| 2026-04-28 19:41 | 49.19307 | 2.16271 | 32061 ft | 464 kts | 296° |
| 2026-04-28 19:42 | 49.22654 | 2.07873 | 32075 ft | 466 kts | 296° |
| 2026-04-28 19:42 | 49.26025 | 1.99400 | 32074 ft | 466 kts | 296° |
| 2026-04-28 19:43 | 49.29392 | 1.90919 | 32078 ft | 466 kts | 296° |
| 2026-04-28 19:43 | 49.32697 | 1.82413 | 32080 ft | 469 kts | 296° |
| 2026-04-28 19:44 | 49.36009 | 1.73795 | 32078 ft | 470 kts | 296° |
| 2026-04-28 19:44 | 49.39299 | 1.65065 | 32100 ft | 473 kts | 296° |
| 2026-04-28 19:45 | 49.42593 | 1.56301 | 32100 ft | 474 kts | 296° |
| 2026-04-28 19:45 | 49.45860 | 1.47591 | 32088 ft | 474 kts | 296° |
| 2026-04-28 19:46 | 49.49144 | 1.38821 | 32107 ft | 473 kts | 296° |
| 2026-04-28 19:46 | 49.52413 | 1.30016 | 32103 ft | 475 kts | 296° |
| 2026-04-28 19:47 | 49.55593 | 1.20999 | 32103 ft | 483 kts | 295° |
| 2026-04-28 19:47 | 49.58753 | 1.11939 | 32104 ft | 483 kts | 295° |
| 2026-04-28 19:48 | 49.61926 | 1.02810 | 32113 ft | 483 kts | 295° |
| 2026-04-28 19:48 | 49.65104 | 0.93658 | 32121 ft | 483 kts | 295° |
| 2026-04-28 19:49 | 49.68281 | 0.84485 | 32126 ft | 487 kts | 295° |
| 2026-04-28 19:49 | 49.71430 | 0.75292 | 32131 ft | 488 kts | 295° |
| 2026-04-28 19:50 | 49.76197 | 0.61358 | 32135 ft | 491 kts | 296° |
| 2026-04-28 19:51 | 49.79358 | 0.51923 | 32144 ft | 496 kts | 295° |
| 2026-04-28 19:51 | 49.82571 | 0.42418 | 32160 ft | 502 kts | 295° |
| 2026-04-28 19:52 | 49.85748 | 0.32784 | 32144 ft | 504 kts | 295° |
| 2026-04-28 19:52 | 49.88924 | 0.23071 | 32156 ft | 507 kts | 295° |
| 2026-04-28 19:53 | 49.92065 | 0.13371 | 32157 ft | 500 kts | 295° |
| 2026-04-28 19:53 | 49.95184 | 0.03714 | 32159 ft | 501 kts | 295° |
| 2026-04-28 19:54 | 49.98288 | -0.06003 | 32166 ft | 509 kts | 295° |
| 2026-04-28 19:54 | 50.01271 | -0.16013 | 32167 ft | 512 kts | 295° |
| 2026-04-28 19:55 | 50.04246 | -0.26076 | 32168 ft | 512 kts | 295° |
| 2026-04-28 19:55 | 50.07217 | -0.36127 | 32170 ft | 511 kts | 295° |
| 2026-04-28 19:56 | 50.10189 | -0.46191 | 32171 ft | 509 kts | 295° |
| 2026-04-28 19:56 | 50.13123 | -0.56148 | 32179 ft | 511 kts | 295° |
| 2026-04-28 19:57 | 50.16083 | -0.66227 | 32182 ft | 511 kts | 295° |
| 2026-04-28 19:57 | 50.19042 | -0.76344 | 32184 ft | 513 kts | 295° |
| 2026-04-28 19:57 | 50.20282 | -0.81498 | 32304 ft | 501 kts | 266° |
| 2026-04-28 19:58 | 50.18595 | -0.85553 | 32320 ft | 452 kts | 180° |
| 2026-04-28 19:58 | 50.17248 | -0.82752 | 30247 ft | 398 kts | 45° |
| 2026-04-28 19:58 | 50.19900 | -0.82640 | 28139 ft | 444 kts | 319° |
| 2026-04-28 19:58 | 50.21831 | -0.86513 | 26462 ft | 448 kts | 328° |
| 2026-04-28 19:59 | 50.24035 | -0.86235 | 25726 ft | 305 kts | 90° |
| 2026-04-28 19:59 | 50.23390 | -0.83301 | 24366 ft | 295 kts | 105° |
| 2026-04-28 19:59 | 50.23395 | -0.80702 | 20087 ft | 187 kts | 41° |
| 2026-04-28 19:59 | 50.24340 | -0.82362 | 9004 ft | 492 kts | 286° |
| 2026-04-28 20:00 | 50.24322 | -0.87511 | 3354 ft | 290 kts | 231° |
| 2026-04-28 20:00 | 50.23485 | -0.88190 | 11 ft | 69 kts | 146° |
| 2026-04-28 20:00 | 50.23281 | -0.88743 | 13 ft | 26 kts | 155° |